sensor_id;sensor_type;location;lat;lon;timestamp;temperature;humidity
9448;DHT22;4762;48.128;11.376;2024-01-15T00:01:42;-3276.30;82.30
9448;DHT22;4762;48.128;11.376;2024-01-15T00:03:40;-3276.50;82.10
9448;DHT22;4762;48.128;11.376;2024-01-15T00:05:43;-3276.40;82.30
9448;DHT22;4762;48.128;11.376;2024-01-15T00:07:45;-3276.50;82.00
9448;DHT22;4762;48.128;11.376;2024-01-15T00:09:47;-3276.50;82.40
9448;DHT22;4762;48.128;11.376;2024-01-15T00:11:49;-3276.70;82.10
9448;DHT22;4762;48.128;11.376;2024-01-15T00:13:52;-3276.70;82.20
9448;DHT22;4762;48.128;11.376;2024-01-15T00:15:54;-3276.50;82.30
9448;DHT22;4762;48.128;11.376;2024-01-15T00:17:56;-3276.50;82.20
9448;DHT22;4762;48.128;11.376;2024-01-15T00:19:59;-3276.50;82.10
9448;DHT22;4762;48.128;11.376;2024-01-15T00:22:01;-3276.40;82.00
9448;DHT22;4762;48.128;11.376;2024-01-15T00:24:03;-3276.30;82.10
9448;DHT22;4762;48.128;11.376;2024-01-15T00:26:06;-3276.60;82.40
9448;DHT22;4762;48.128;11.376;2024-01-15T00:28:08;-3276.20;82.50
9448;DHT22;4762;48.128;11.376;2024-01-15T00:30:10;-3276.20;82.40
9448;DHT22;4762;48.128;11.376;2024-01-15T00:32:13;-3276.40;82.70
9448;DHT22;4762;48.128;11.376;2024-01-15T00:34:15;-3276.40;82.60
9448;DHT22;4762;48.128;11.376;2024-01-15T00:36:17;-3276.40;82.60
9448;DHT22;4762;48.128;11.376;2024-01-15T00:38:20;-3276.30;82.70
9448;DHT22;4762;48.128;11.376;2024-01-15T00:40:22;-3276.30;82.70
9448;DHT22;4762;48.128;11.376;2024-01-15T00:42:24;-3276.20;82.70
9448;DHT22;4762;48.128;11.376;2024-01-15T00:44:26;-3276.20;82.80
9448;DHT22;4762;48.128;11.376;2024-01-15T00:46:29;-3276.00;82.50
9448;DHT22;4762;48.128;11.376;2024-01-15T00:48:31;-3276.10;82.40
9448;DHT22;4762;48.128;11.376;2024-01-15T00:50:34;-3275.90;82.50
9448;DHT22;4762;48.128;11.376;2024-01-15T00:52:36;-3276.30;82.40
9448;DHT22;4762;48.128;11.376;2024-01-15T00:54:39;-3276.10;82.20
9448;DHT22;4762;48.128;11.376;2024-01-15T00:56:41;-3276.40;82.40
9448;DHT22;4762;48.128;11.376;2024-01-15T00:58:43;-3276.10;82.10
9448;DHT22;4762;48.128;11.376;2024-01-15T01:00:45;-3276.10;82.20
9448;DHT22;4762;48.128;11.376;2024-01-15T01:02:48;-3275.90;82.20
9448;DHT22;4762;48.128;11.376;2024-01-15T01:04:50;-3276.00;82.10
9448;DHT22;4762;48.128;11.376;2024-01-15T01:06:52;-3275.90;82.00
9448;DHT22;4762;48.128;11.376;2024-01-15T01:08:54;-3276.10;81.80
9448;DHT22;4762;48.128;11.376;2024-01-15T01:10:56;-3275.70;81.50
9448;DHT22;4762;48.128;11.376;2024-01-15T01:12:59;-3275.50;81.10
9448;DHT22;4762;48.128;11.376;2024-01-15T01:15:01;-3275.50;81.00
9448;DHT22;4762;48.128;11.376;2024-01-15T01:17:03;-3275.30;80.60
9448;DHT22;4762;48.128;11.376;2024-01-15T01:19:06;-3275.20;80.40
9448;DHT22;4762;48.128;11.376;2024-01-15T01:21:08;-3274.90;80.50
9448;DHT22;4762;48.128;11.376;2024-01-15T01:23:10;-3275.00;79.80
9448;DHT22;4762;48.128;11.376;2024-01-15T01:25:13;-3274.80;79.70
9448;DHT22;4762;48.128;11.376;2024-01-15T01:27:15;-3274.70;79.80
9448;DHT22;4762;48.128;11.376;2024-01-15T01:29:18;-3274.80;79.50
9448;DHT22;4762;48.128;11.376;2024-01-15T01:31:21;-3274.60;79.70
9448;DHT22;4762;48.128;11.376;2024-01-15T01:33:23;-3274.60;79.70
9448;DHT22;4762;48.128;11.376;2024-01-15T01:35:26;-3274.60;79.50
9448;DHT22;4762;48.128;11.376;2024-01-15T01:37:28;-3274.60;79.40
9448;DHT22;4762;48.128;11.376;2024-01-15T01:39:31;-3274.50;79.20
9448;DHT22;4762;48.128;11.376;2024-01-15T01:41:33;-3274.60;79.10
9448;DHT22;4762;48.128;11.376;2024-01-15T01:43:35;-3274.50;79.20
9448;DHT22;4762;48.128;11.376;2024-01-15T01:45:37;-3274.40;79.40
9448;DHT22;4762;48.128;11.376;2024-01-15T01:47:40;-3274.40;79.20
9448;DHT22;4762;48.128;11.376;2024-01-15T01:49:42;-3274.50;79.30
9448;DHT22;4762;48.128;11.376;2024-01-15T01:51:45;-3274.30;79.30
9448;DHT22;4762;48.128;11.376;2024-01-15T01:53:47;-3274.40;79.50
9448;DHT22;4762;48.128;11.376;2024-01-15T01:55:49;-3274.40;79.70
9448;DHT22;4762;48.128;11.376;2024-01-15T01:57:51;-3274.30;79.70
9448;DHT22;4762;48.128;11.376;2024-01-15T01:59:54;-3274.50;79.50
9448;DHT22;4762;48.128;11.376;2024-01-15T02:01:56;-3274.40;79.50
9448;DHT22;4762;48.128;11.376;2024-01-15T02:03:59;-3274.30;79.50
9448;DHT22;4762;48.128;11.376;2024-01-15T02:06:01;-3274.30;79.50
9448;DHT22;4762;48.128;11.376;2024-01-15T02:08:03;-3274.30;79.60
9448;DHT22;4762;48.128;11.376;2024-01-15T02:10:06;-3274.30;79.60
9448;DHT22;4762;48.128;11.376;2024-01-15T02:12:08;-3274.20;80.00
9448;DHT22;4762;48.128;11.376;2024-01-15T02:14:10;-3274.20;80.20
9448;DHT22;4762;48.128;11.376;2024-01-15T02:16:13;-3274.00;80.10
9448;DHT22;4762;48.128;11.376;2024-01-15T02:18:15;-3274.10;80.40
9448;DHT22;4762;48.128;11.376;2024-01-15T02:20:17;-3274.10;80.30
9448;DHT22;4762;48.128;11.376;2024-01-15T02:22:19;-3274.10;80.40
9448;DHT22;4762;48.128;11.376;2024-01-15T02:24:22;-3274.20;80.40
9448;DHT22;4762;48.128;11.376;2024-01-15T02:26:24;-3274.00;80.30
9448;DHT22;4762;48.128;11.376;2024-01-15T02:28:27;-3274.00;80.30
9448;DHT22;4762;48.128;11.376;2024-01-15T02:30:29;-3274.00;80.10
9448;DHT22;4762;48.128;11.376;2024-01-15T02:32:32;-3273.90;80.20
9448;DHT22;4762;48.128;11.376;2024-01-15T02:34:34;-3274.00;80.00
9448;DHT22;4762;48.128;11.376;2024-01-15T02:36:36;-3273.90;80.10
9448;DHT22;4762;48.128;11.376;2024-01-15T02:38:38;-3274.10;79.90
9448;DHT22;4762;48.128;11.376;2024-01-15T02:40:41;-3274.10;80.00
9448;DHT22;4762;48.128;11.376;2024-01-15T02:42:43;-3274.00;79.60
9448;DHT22;4762;48.128;11.376;2024-01-15T02:44:45;-3274.10;79.70
9448;DHT22;4762;48.128;11.376;2024-01-15T02:46:47;-3274.10;79.80
9448;DHT22;4762;48.128;11.376;2024-01-15T02:48:50;-3274.10;79.60
9448;DHT22;4762;48.128;11.376;2024-01-15T02:50:52;-3274.10;79.60
9448;DHT22;4762;48.128;11.376;2024-01-15T02:52:54;-3274.10;79.70
9448;DHT22;4762;48.128;11.376;2024-01-15T02:54:56;-3274.10;79.50
9448;DHT22;4762;48.128;11.376;2024-01-15T02:56:59;-3274.10;80.00
9448;DHT22;4762;48.128;11.376;2024-01-15T02:59:01;-3274.10;79.80
9448;DHT22;4762;48.128;11.376;2024-01-15T03:01:03;-3274.20;79.50
9448;DHT22;4762;48.128;11.376;2024-01-15T03:03:05;-3274.20;79.50
9448;DHT22;4762;48.128;11.376;2024-01-15T03:05:07;-3274.20;79.30
9448;DHT22;4762;48.128;11.376;2024-01-15T03:07:10;-3274.30;79.10
9448;DHT22;4762;48.128;11.376;2024-01-15T03:09:12;-3274.20;79.40
9448;DHT22;4762;48.128;11.376;2024-01-15T03:11:15;-3274.10;79.30
9448;DHT22;4762;48.128;11.376;2024-01-15T03:13:17;-3274.30;79.50
9448;DHT22;4762;48.128;11.376;2024-01-15T03:15:19;-3274.20;79.40
9448;DHT22;4762;48.128;11.376;2024-01-15T03:17:21;-3274.10;79.30
9448;DHT22;4762;48.128;11.376;2024-01-15T03:19:24;-3274.10;79.30
9448;DHT22;4762;48.128;11.376;2024-01-15T03:21:26;-3274.10;79.20
9448;DHT22;4762;48.128;11.376;2024-01-15T03:23:29;-3274.10;79.20
9448;DHT22;4762;48.128;11.376;2024-01-15T03:25:31;-3274.10;79.30
9448;DHT22;4762;48.128;11.376;2024-01-15T03:27:34;-3274.00;79.40
9448;DHT22;4762;48.128;11.376;2024-01-15T03:29:36;-3274.10;79.20
9448;DHT22;4762;48.128;11.376;2024-01-15T03:31:38;-3274.10;79.40
9448;DHT22;4762;48.128;11.376;2024-01-15T03:33:40;-3274.00;79.60
9448;DHT22;4762;48.128;11.376;2024-01-15T03:35:42;-3274.10;79.50
9448;DHT22;4762;48.128;11.376;2024-01-15T03:37:46;-3274.10;79.50
9448;DHT22;4762;48.128;11.376;2024-01-15T03:39:48;-3274.10;79.40
9448;DHT22;4762;48.128;11.376;2024-01-15T03:41:50;-3274.10;79.40
9448;DHT22;4762;48.128;11.376;2024-01-15T03:43:52;-3274.10;79.20
9448;DHT22;4762;48.128;11.376;2024-01-15T03:45:55;-3274.20;79.30
9448;DHT22;4762;48.128;11.376;2024-01-15T03:47:57;-3274.20;79.30
9448;DHT22;4762;48.128;11.376;2024-01-15T03:49:59;-3274.10;79.20
9448;DHT22;4762;48.128;11.376;2024-01-15T03:52:01;-3274.20;79.20
9448;DHT22;4762;48.128;11.376;2024-01-15T03:54:04;-3274.20;79.40
9448;DHT22;4762;48.128;11.376;2024-01-15T03:56:06;-3274.20;79.30
9448;DHT22;4762;48.128;11.376;2024-01-15T03:58:08;-3274.20;79.30
9448;DHT22;4762;48.128;11.376;2024-01-15T04:00:11;-3274.20;79.70
9448;DHT22;4762;48.128;11.376;2024-01-15T04:02:13;-3274.20;79.30
9448;DHT22;4762;48.128;11.376;2024-01-15T04:04:15;-3274.10;79.30
9448;DHT22;4762;48.128;11.376;2024-01-15T04:06:18;-3274.20;79.10
9448;DHT22;4762;48.128;11.376;2024-01-15T04:08:20;-3274.20;79.10
9448;DHT22;4762;48.128;11.376;2024-01-15T04:10:22;-3274.30;79.20
9448;DHT22;4762;48.128;11.376;2024-01-15T04:12:24;-3274.10;78.90
9448;DHT22;4762;48.128;11.376;2024-01-15T04:14:27;-3274.30;79.20
9448;DHT22;4762;48.128;11.376;2024-01-15T04:16:30;-3274.40;78.80
9448;DHT22;4762;48.128;11.376;2024-01-15T04:18:32;-3274.30;78.70
9448;DHT22;4762;48.128;11.376;2024-01-15T04:20:35;-3274.20;78.50
9448;DHT22;4762;48.128;11.376;2024-01-15T04:22:37;-3274.30;78.80
9448;DHT22;4762;48.128;11.376;2024-01-15T04:24:39;-3274.30;78.70
9448;DHT22;4762;48.128;11.376;2024-01-15T04:26:42;-3274.30;78.50
9448;DHT22;4762;48.128;11.376;2024-01-15T04:28:44;-3274.30;78.50
9448;DHT22;4762;48.128;11.376;2024-01-15T04:30:46;-3274.20;78.60
9448;DHT22;4762;48.128;11.376;2024-01-15T04:32:48;-3274.30;78.40
9448;DHT22;4762;48.128;11.376;2024-01-15T04:34:50;-3274.30;78.10
9448;DHT22;4762;48.128;11.376;2024-01-15T04:36:53;-3274.30;78.90
9448;DHT22;4762;48.128;11.376;2024-01-15T04:38:55;-3274.40;78.60
9448;DHT22;4762;48.128;11.376;2024-01-15T04:40:57;-3274.40;78.50
9448;DHT22;4762;48.128;11.376;2024-01-15T04:42:59;-3274.50;78.60
9448;DHT22;4762;48.128;11.376;2024-01-15T04:45:02;-3274.40;78.30
9448;DHT22;4762;48.128;11.376;2024-01-15T04:47:04;-3274.40;78.30
9448;DHT22;4762;48.128;11.376;2024-01-15T04:49:07;-3274.30;78.50
9448;DHT22;4762;48.128;11.376;2024-01-15T04:51:09;-3274.30;78.40
9448;DHT22;4762;48.128;11.376;2024-01-15T04:53:11;-3274.40;78.50
9448;DHT22;4762;48.128;11.376;2024-01-15T04:55:13;-3274.40;78.30
9448;DHT22;4762;48.128;11.376;2024-01-15T04:57:16;-3274.50;78.30
9448;DHT22;4762;48.128;11.376;2024-01-15T04:59:18;-3274.40;78.30
9448;DHT22;4762;48.128;11.376;2024-01-15T05:01:20;-3274.50;78.10
9448;DHT22;4762;48.128;11.376;2024-01-15T05:03:22;-3274.40;77.80
9448;DHT22;4762;48.128;11.376;2024-01-15T05:05:24;-3274.50;78.10
9448;DHT22;4762;48.128;11.376;2024-01-15T05:07:27;-3274.40;78.00
9448;DHT22;4762;48.128;11.376;2024-01-15T05:09:29;-3274.50;78.00
9448;DHT22;4762;48.128;11.376;2024-01-15T05:11:31;-3274.50;78.00
9448;DHT22;4762;48.128;11.376;2024-01-15T05:13:33;-3274.50;77.80
9448;DHT22;4762;48.128;11.376;2024-01-15T05:15:36;-3274.40;77.90
9448;DHT22;4762;48.128;11.376;2024-01-15T05:17:38;-3274.50;78.20
9448;DHT22;4762;48.128;11.376;2024-01-15T05:19:40;-3274.40;77.90
9448;DHT22;4762;48.128;11.376;2024-01-15T05:21:42;-3274.40;78.10
9448;DHT22;4762;48.128;11.376;2024-01-15T05:23:45;-3274.30;78.30
9448;DHT22;4762;48.128;11.376;2024-01-15T05:25:48;-3274.30;78.50
9448;DHT22;4762;48.128;11.376;2024-01-15T05:27:50;-3274.40;78.30
9448;DHT22;4762;48.128;11.376;2024-01-15T05:29:52;-3274.50;78.20
9448;DHT22;4762;48.128;11.376;2024-01-15T05:31:54;-3274.50;78.30
9448;DHT22;4762;48.128;11.376;2024-01-15T05:33:57;-3274.40;78.60
9448;DHT22;4762;48.128;11.376;2024-01-15T05:35:59;-3274.40;78.20
9448;DHT22;4762;48.128;11.376;2024-01-15T05:38:02;-3274.30;78.60
9448;DHT22;4762;48.128;11.376;2024-01-15T05:40:05;-3274.40;78.30
9448;DHT22;4762;48.128;11.376;2024-01-15T05:42:07;-3274.20;78.20
9448;DHT22;4762;48.128;11.376;2024-01-15T05:44:09;-3274.30;78.50
9448;DHT22;4762;48.128;11.376;2024-01-15T05:46:11;-3274.30;78.60
9448;DHT22;4762;48.128;11.376;2024-01-15T05:48:15;-3274.40;78.40
9448;DHT22;4762;48.128;11.376;2024-01-15T05:50:17;-3274.40;78.30
9448;DHT22;4762;48.128;11.376;2024-01-15T05:52:19;-3274.20;78.40
9448;DHT22;4762;48.128;11.376;2024-01-15T05:54:21;-3274.40;78.40
9448;DHT22;4762;48.128;11.376;2024-01-15T05:56:23;-3274.30;78.30
9448;DHT22;4762;48.128;11.376;2024-01-15T05:58:26;-3274.40;78.10
9448;DHT22;4762;48.128;11.376;2024-01-15T06:00:28;-3274.40;78.30
9448;DHT22;4762;48.128;11.376;2024-01-15T06:02:30;-3274.40;78.30
9448;DHT22;4762;48.128;11.376;2024-01-15T06:04:32;-3274.40;78.10
9448;DHT22;4762;48.128;11.376;2024-01-15T06:06:35;-3274.30;77.60
9448;DHT22;4762;48.128;11.376;2024-01-15T06:08:38;-3274.30;78.00
9448;DHT22;4762;48.128;11.376;2024-01-15T06:10:40;-3274.30;78.40
9448;DHT22;4762;48.128;11.376;2024-01-15T06:12:43;-3274.30;78.50
9448;DHT22;4762;48.128;11.376;2024-01-15T06:14:46;-3274.30;78.20
9448;DHT22;4762;48.128;11.376;2024-01-15T06:16:48;-3274.40;78.20
9448;DHT22;4762;48.128;11.376;2024-01-15T06:18:50;-3274.40;78.00
9448;DHT22;4762;48.128;11.376;2024-01-15T06:20:52;-3274.30;78.20
9448;DHT22;4762;48.128;11.376;2024-01-15T06:22:55;-3274.50;78.10
9448;DHT22;4762;48.128;11.376;2024-01-15T06:24:57;-3274.40;77.90
9448;DHT22;4762;48.128;11.376;2024-01-15T06:27:00;-3274.30;78.20
9448;DHT22;4762;48.128;11.376;2024-01-15T06:29:02;-3274.40;78.10
9448;DHT22;4762;48.128;11.376;2024-01-15T06:31:06;-3274.30;78.10
9448;DHT22;4762;48.128;11.376;2024-01-15T06:33:07;-3274.40;78.70
9448;DHT22;4762;48.128;11.376;2024-01-15T06:35:09;-3274.40;78.30
9448;DHT22;4762;48.128;11.376;2024-01-15T06:37:12;-3274.20;78.50
9448;DHT22;4762;48.128;11.376;2024-01-15T06:39:14;-3274.30;78.70
9448;DHT22;4762;48.128;11.376;2024-01-15T06:41:16;-3274.40;78.10
9448;DHT22;4762;48.128;11.376;2024-01-15T06:43:18;-3274.40;78.30
9448;DHT22;4762;48.128;11.376;2024-01-15T06:45:21;-3274.40;78.30
9448;DHT22;4762;48.128;11.376;2024-01-15T06:47:23;-3274.50;78.40
9448;DHT22;4762;48.128;11.376;2024-01-15T06:49:25;-3274.40;78.70
9448;DHT22;4762;48.128;11.376;2024-01-15T06:51:28;-3274.40;78.40
9448;DHT22;4762;48.128;11.376;2024-01-15T06:53:30;-3274.40;78.30
9448;DHT22;4762;48.128;11.376;2024-01-15T06:55:32;-3274.40;78.30
9448;DHT22;4762;48.128;11.376;2024-01-15T06:57:34;-3274.50;78.30
9448;DHT22;4762;48.128;11.376;2024-01-15T06:59:36;-3274.50;78.60
9448;DHT22;4762;48.128;11.376;2024-01-15T07:01:39;-3274.50;78.50
9448;DHT22;4762;48.128;11.376;2024-01-15T07:03:41;-3274.50;78.30
9448;DHT22;4762;48.128;11.376;2024-01-15T07:05:44;-3274.60;78.10
9448;DHT22;4762;48.128;11.376;2024-01-15T07:07:46;-3274.60;78.30
9448;DHT22;4762;48.128;11.376;2024-01-15T07:09:49;-3274.70;78.10
9448;DHT22;4762;48.128;11.376;2024-01-15T07:11:51;-3274.60;78.40
9448;DHT22;4762;48.128;11.376;2024-01-15T07:13:53;-3274.80;78.20
9448;DHT22;4762;48.128;11.376;2024-01-15T07:15:55;-3274.60;78.00
9448;DHT22;4762;48.128;11.376;2024-01-15T07:17:58;-3274.70;78.30
9448;DHT22;4762;48.128;11.376;2024-01-15T07:20:00;-3274.70;78.10
9448;DHT22;4762;48.128;11.376;2024-01-15T07:22:02;-3274.70;78.30
9448;DHT22;4762;48.128;11.376;2024-01-15T07:24:09;-3274.80;78.20
9448;DHT22;4762;48.128;11.376;2024-01-15T07:26:12;-3274.80;78.30
9448;DHT22;4762;48.128;11.376;2024-01-15T07:28:14;-3274.80;78.50
9448;DHT22;4762;48.128;11.376;2024-01-15T07:30:16;-3274.80;78.30
9448;DHT22;4762;48.128;11.376;2024-01-15T07:32:19;-3275.10;78.10
9448;DHT22;4762;48.128;11.376;2024-01-15T07:34:21;-3274.80;78.10
9448;DHT22;4762;48.128;11.376;2024-01-15T07:36:23;-3274.80;78.30
9448;DHT22;4762;48.128;11.376;2024-01-15T07:38:25;-3274.90;78.20
9448;DHT22;4762;48.128;11.376;2024-01-15T07:40:27;-3274.90;78.30
9448;DHT22;4762;48.128;11.376;2024-01-15T07:42:30;-3275.10;78.20
9448;DHT22;4762;48.128;11.376;2024-01-15T07:44:32;-3274.80;78.30
9448;DHT22;4762;48.128;11.376;2024-01-15T07:46:34;-3275.00;78.10
9448;DHT22;4762;48.128;11.376;2024-01-15T07:48:37;-3274.90;78.50
9448;DHT22;4762;48.128;11.376;2024-01-15T07:50:39;-3275.10;78.30
9448;DHT22;4762;48.128;11.376;2024-01-15T07:52:41;-3275.00;78.30
9448;DHT22;4762;48.128;11.376;2024-01-15T07:54:44;-3275.00;77.90
9448;DHT22;4762;48.128;11.376;2024-01-15T07:56:56;-3275.00;78.10
9448;DHT22;4762;48.128;11.376;2024-01-15T07:58:57;-3275.00;77.90
9448;DHT22;4762;48.128;11.376;2024-01-15T08:01:00;-3275.10;77.80
9448;DHT22;4762;48.128;11.376;2024-01-15T08:03:03;-3275.10;77.90
9448;DHT22;4762;48.128;11.376;2024-01-15T08:05:05;-3275.00;78.00
9448;DHT22;4762;48.128;11.376;2024-01-15T08:07:08;-3275.00;78.00
9448;DHT22;4762;48.128;11.376;2024-01-15T08:09:10;-3275.10;77.90
9448;DHT22;4762;48.128;11.376;2024-01-15T08:11:12;-3275.20;77.90
9448;DHT22;4762;48.128;11.376;2024-01-15T08:13:14;-3275.10;77.90
9448;DHT22;4762;48.128;11.376;2024-01-15T08:15:18;-3275.10;78.00
9448;DHT22;4762;48.128;11.376;2024-01-15T08:17:20;-3275.00;78.00
9448;DHT22;4762;48.128;11.376;2024-01-15T08:19:22;-3275.20;77.90
9448;DHT22;4762;48.128;11.376;2024-01-15T08:21:24;-3275.10;77.80
9448;DHT22;4762;48.128;11.376;2024-01-15T08:23:26;-3275.10;77.90
9448;DHT22;4762;48.128;11.376;2024-01-15T08:25:29;-3275.20;78.20
9448;DHT22;4762;48.128;11.376;2024-01-15T08:27:31;-3275.20;78.20
9448;DHT22;4762;48.128;11.376;2024-01-15T08:29:34;-3275.20;77.90
9448;DHT22;4762;48.128;11.376;2024-01-15T08:31:37;-3275.10;78.10
9448;DHT22;4762;48.128;11.376;2024-01-15T08:33:39;-3275.20;78.10
9448;DHT22;4762;48.128;11.376;2024-01-15T08:35:41;-3275.10;78.10
9448;DHT22;4762;48.128;11.376;2024-01-15T08:37:45;-3275.20;77.90
9448;DHT22;4762;48.128;11.376;2024-01-15T08:39:47;-3275.20;78.00
9448;DHT22;4762;48.128;11.376;2024-01-15T08:41:49;-3275.30;78.00
9448;DHT22;4762;48.128;11.376;2024-01-15T08:43:51;-3275.20;78.00
9448;DHT22;4762;48.128;11.376;2024-01-15T08:45:54;-3275.40;78.10
9448;DHT22;4762;48.128;11.376;2024-01-15T08:47:56;-3275.20;78.00
9448;DHT22;4762;48.128;11.376;2024-01-15T08:49:58;-3275.20;77.90
9448;DHT22;4762;48.128;11.376;2024-01-15T08:52:00;-3275.30;77.90
9448;DHT22;4762;48.128;11.376;2024-01-15T08:54:03;-3275.20;78.00
9448;DHT22;4762;48.128;11.376;2024-01-15T08:56:06;-3275.30;77.70
9448;DHT22;4762;48.128;11.376;2024-01-15T08:58:08;-3275.60;77.70
9448;DHT22;4762;48.128;11.376;2024-01-15T09:00:11;-3275.60;77.40
9448;DHT22;4762;48.128;11.376;2024-01-15T09:02:14;-3275.50;77.60
9448;DHT22;4762;48.128;11.376;2024-01-15T09:04:16;-3275.40;77.20
9448;DHT22;4762;48.128;11.376;2024-01-15T09:06:18;-3275.60;77.20
9448;DHT22;4762;48.128;11.376;2024-01-15T09:08:20;-3275.50;77.10
9448;DHT22;4762;48.128;11.376;2024-01-15T09:10:23;-3275.80;77.30
9448;DHT22;4762;48.128;11.376;2024-01-15T09:12:27;-3275.70;77.40
9448;DHT22;4762;48.128;11.376;2024-01-15T09:14:28;-3275.60;76.80
9448;DHT22;4762;48.128;11.376;2024-01-15T09:16:30;-3275.60;76.90
9448;DHT22;4762;48.128;11.376;2024-01-15T09:18:32;-3275.70;76.70
9448;DHT22;4762;48.128;11.376;2024-01-15T09:20:35;-3275.80;76.90
9448;DHT22;4762;48.128;11.376;2024-01-15T09:22:38;-3276.00;76.60
9448;DHT22;4762;48.128;11.376;2024-01-15T09:24:43;-3275.90;76.10
9448;DHT22;4762;48.128;11.376;2024-01-15T09:26:45;-3276.10;76.00
9448;DHT22;4762;48.128;11.376;2024-01-15T09:28:48;-3276.10;75.90
9448;DHT22;4762;48.128;11.376;2024-01-15T09:30:50;-3275.90;75.60
9448;DHT22;4762;48.128;11.376;2024-01-15T09:32:52;-3276.10;75.40
9448;DHT22;4762;48.128;11.376;2024-01-15T09:34:55;-3276.00;75.50
9448;DHT22;4762;48.128;11.376;2024-01-15T09:36:57;-3276.20;75.20
9448;DHT22;4762;48.128;11.376;2024-01-15T09:38:59;-3276.20;74.90
9448;DHT22;4762;48.128;11.376;2024-01-15T09:41:02;-3276.20;74.90
9448;DHT22;4762;48.128;11.376;2024-01-15T09:43:04;-3276.20;74.00
9448;DHT22;4762;48.128;11.376;2024-01-15T09:45:07;-3276.40;73.90
9448;DHT22;4762;48.128;11.376;2024-01-15T09:47:11;-3276.40;73.40
9448;DHT22;4762;48.128;11.376;2024-01-15T09:49:14;-3276.20;73.20
9448;DHT22;4762;48.128;11.376;2024-01-15T09:51:17;-3276.20;72.60
9448;DHT22;4762;48.128;11.376;2024-01-15T09:53:20;-3276.20;73.00
9448;DHT22;4762;48.128;11.376;2024-01-15T09:55:23;-3276.30;72.90
9448;DHT22;4762;48.128;11.376;2024-01-15T09:57:25;-3276.60;73.30
9448;DHT22;4762;48.128;11.376;2024-01-15T09:59:28;-3276.50;72.50
9448;DHT22;4762;48.128;11.376;2024-01-15T10:01:31;-3276.30;72.90
9448;DHT22;4762;48.128;11.376;2024-01-15T10:03:32;-3276.40;73.10
9448;DHT22;4762;48.128;11.376;2024-01-15T10:05:34;-3276.50;73.40
9448;DHT22;4762;48.128;11.376;2024-01-15T10:07:37;-3276.40;72.60
9448;DHT22;4762;48.128;11.376;2024-01-15T10:09:39;-3276.30;71.90
9448;DHT22;4762;48.128;11.376;2024-01-15T10:11:42;-3276.40;72.60
9448;DHT22;4762;48.128;11.376;2024-01-15T10:13:44;-3276.30;72.60
9448;DHT22;4762;48.128;11.376;2024-01-15T10:15:46;-3276.40;72.30
9448;DHT22;4762;48.128;11.376;2024-01-15T10:17:50;-3276.20;72.60
9448;DHT22;4762;48.128;11.376;2024-01-15T10:19:51;-3276.20;72.30
9448;DHT22;4762;48.128;11.376;2024-01-15T10:21:53;-3276.50;72.20
9448;DHT22;4762;48.128;11.376;2024-01-15T10:23:56;-3276.60;72.10
9448;DHT22;4762;48.128;11.376;2024-01-15T10:25:58;-3276.30;72.40
9448;DHT22;4762;48.128;11.376;2024-01-15T10:28:02;-3276.30;72.10
9448;DHT22;4762;48.128;11.376;2024-01-15T10:30:04;-3276.50;72.80
9448;DHT22;4762;48.128;11.376;2024-01-15T10:32:07;-3276.40;72.40
9448;DHT22;4762;48.128;11.376;2024-01-15T10:34:10;-3276.60;72.90
9448;DHT22;4762;48.128;11.376;2024-01-15T10:36:12;-3276.60;73.00
9448;DHT22;4762;48.128;11.376;2024-01-15T10:38:14;-3276.70;72.50
9448;DHT22;4762;48.128;11.376;2024-01-15T10:40:18;0.00;72.20
9448;DHT22;4762;48.128;11.376;2024-01-15T10:42:19;-3276.70;72.00
9448;DHT22;4762;48.128;11.376;2024-01-15T10:44:21;-3276.70;72.60
9448;DHT22;4762;48.128;11.376;2024-01-15T10:46:24;0.10;72.90
9448;DHT22;4762;48.128;11.376;2024-01-15T10:48:26;0.00;72.40
9448;DHT22;4762;48.128;11.376;2024-01-15T10:50:28;0.20;72.70
9448;DHT22;4762;48.128;11.376;2024-01-15T10:52:30;0.00;72.40
9448;DHT22;4762;48.128;11.376;2024-01-15T10:54:33;-3276.70;73.40
9448;DHT22;4762;48.128;11.376;2024-01-15T10:56:35;0.10;73.10
9448;DHT22;4762;48.128;11.376;2024-01-15T10:58:37;0.20;73.30
9448;DHT22;4762;48.128;11.376;2024-01-15T11:00:39;0.10;72.20
9448;DHT22;4762;48.128;11.376;2024-01-15T11:02:42;0.30;72.00
9448;DHT22;4762;48.128;11.376;2024-01-15T11:04:44;0.30;72.30
9448;DHT22;4762;48.128;11.376;2024-01-15T11:06:49;0.10;72.10
9448;DHT22;4762;48.128;11.376;2024-01-15T11:08:49;0.20;72.30
9448;DHT22;4762;48.128;11.376;2024-01-15T11:10:52;0.30;71.80
9448;DHT22;4762;48.128;11.376;2024-01-15T11:12:54;0.40;71.90
9448;DHT22;4762;48.128;11.376;2024-01-15T11:15:02;0.40;70.90
9448;DHT22;4762;48.128;11.376;2024-01-15T11:17:04;0.50;70.70
9448;DHT22;4762;48.128;11.376;2024-01-15T11:19:06;0.30;71.50
9448;DHT22;4762;48.128;11.376;2024-01-15T11:21:20;0.10;72.00
9448;DHT22;4762;48.128;11.376;2024-01-15T11:25:41;0.00;72.50
9448;DHT22;4762;48.128;11.376;2024-01-15T11:27:46;0.00;72.80
9448;DHT22;4762;48.128;11.376;2024-01-15T11:29:51;0.00;72.80
9448;DHT22;4762;48.128;11.376;2024-01-15T11:31:58;0.00;72.30
9448;DHT22;4762;48.128;11.376;2024-01-15T11:34:00;0.00;72.30
9448;DHT22;4762;48.128;11.376;2024-01-15T11:36:02;0.00;72.30
9448;DHT22;4762;48.128;11.376;2024-01-15T11:38:04;0.00;72.40
9448;DHT22;4762;48.128;11.376;2024-01-15T11:40:07;0.50;69.90
9448;DHT22;4762;48.128;11.376;2024-01-15T11:42:09;1.10;67.30
9448;DHT22;4762;48.128;11.376;2024-01-15T11:44:11;1.60;65.90
9448;DHT22;4762;48.128;11.376;2024-01-15T11:46:14;2.00;64.10
9448;DHT22;4762;48.128;11.376;2024-01-15T11:48:16;1.70;65.20
9448;DHT22;4762;48.128;11.376;2024-01-15T11:50:18;1.70;64.70
9448;DHT22;4762;48.128;11.376;2024-01-15T11:52:20;0.90;67.70
9448;DHT22;4762;48.128;11.376;2024-01-15T11:54:23;0.50;68.00
9448;DHT22;4762;48.128;11.376;2024-01-15T11:56:25;0.40;68.60
9448;DHT22;4762;48.128;11.376;2024-01-15T11:58:28;0.30;69.40
9448;DHT22;4762;48.128;11.376;2024-01-15T12:00:30;1.00;68.30
9448;DHT22;4762;48.128;11.376;2024-01-15T12:02:32;0.50;67.40
9448;DHT22;4762;48.128;11.376;2024-01-15T12:04:34;0.00;69.20
9448;DHT22;4762;48.128;11.376;2024-01-15T12:06:37;0.30;69.20
9448;DHT22;4762;48.128;11.376;2024-01-15T12:08:39;1.00;67.20
9448;DHT22;4762;48.128;11.376;2024-01-15T12:10:41;1.60;65.50
9448;DHT22;4762;48.128;11.376;2024-01-15T12:13:00;1.80;64.40
9448;DHT22;4762;48.128;11.376;2024-01-15T12:15:03;1.90;63.40
9448;DHT22;4762;48.128;11.376;2024-01-15T12:17:05;2.30;63.10
9448;DHT22;4762;48.128;11.376;2024-01-15T12:19:07;2.40;62.10
9448;DHT22;4762;48.128;11.376;2024-01-15T12:21:10;1.20;64.20
9448;DHT22;4762;48.128;11.376;2024-01-15T12:23:12;0.50;67.40
9448;DHT22;4762;48.128;11.376;2024-01-15T12:25:14;0.30;68.70
9448;DHT22;4762;48.128;11.376;2024-01-15T12:27:16;0.30;69.50
9448;DHT22;4762;48.128;11.376;2024-01-15T12:29:18;0.10;69.80
9448;DHT22;4762;48.128;11.376;2024-01-15T12:31:21;0.10;70.20
9448;DHT22;4762;48.128;11.376;2024-01-15T12:33:23;0.00;70.60
9448;DHT22;4762;48.128;11.376;2024-01-15T12:35:25;0.00;70.30
9448;DHT22;4762;48.128;11.376;2024-01-15T12:37:28;0.10;70.80
9448;DHT22;4762;48.128;11.376;2024-01-15T12:39:30;0.10;71.10